createdAt,value
2018-07-16T00:02:30.120Z,16.20
2018-07-16T00:07:59.333Z,16.20
2018-07-16T00:13:29.612Z,16.20
2018-07-16T00:18:59.839Z,16.20
2018-07-16T00:24:29.033Z,16.20
2018-07-16T00:30:02.979Z,16.10
2018-07-16T00:35:32.251Z,16.10
2018-07-16T00:41:01.483Z,16.10
2018-07-16T00:46:30.704Z,16.10
2018-07-16T00:51:59.896Z,16.00
2018-07-16T00:57:30.160Z,15.90
2018-07-16T01:02:59.353Z,15.80
2018-07-16T01:08:28.581Z,15.80
2018-07-16T01:13:58.858Z,15.70
2018-07-16T01:19:28.856Z,15.60
2018-07-16T01:25:00.016Z,15.60
2018-07-16T01:30:29.243Z,15.60
2018-07-16T01:35:58.441Z,15.60
2018-07-16T01:41:27.642Z,15.60
2018-07-16T01:47:03.495Z,15.50
2018-07-16T02:03:35.241Z,15.50
2018-07-16T02:09:04.863Z,15.40
2018-07-16T02:14:37.344Z,15.40
2018-07-16T02:20:08.392Z,15.40
2018-07-16T02:25:37.767Z,15.40
2018-07-16T02:31:07.018Z,15.30
2018-07-16T02:36:36.192Z,15.30
2018-07-16T02:42:06.156Z,15.30
2018-07-16T02:47:35.338Z,15.30
2018-07-16T02:53:14.409Z,15.30
2018-07-16T02:58:43.666Z,15.30
2018-07-16T03:04:15.369Z,15.30
2018-07-16T03:09:44.629Z,15.20
2018-07-16T03:15:14.883Z,15.20
2018-07-16T03:20:44.143Z,15.30
2018-07-16T03:26:13.355Z,15.20
2018-07-16T03:31:42.666Z,15.20
2018-07-16T03:37:11.836Z,15.20
2018-07-16T03:42:41.124Z,15.20
2018-07-16T03:48:10.419Z,15.20
2018-07-16T03:53:40.677Z,15.30
2018-07-16T03:59:09.961Z,15.30
2018-07-16T04:04:39.203Z,15.30
2018-07-16T04:10:08.688Z,15.40
2018-07-16T04:15:38.936Z,15.40
2018-07-16T04:21:08.146Z,15.50
2018-07-16T04:26:37.444Z,15.60
2018-07-16T04:32:07.789Z,15.60
2018-07-16T04:37:37.017Z,15.70
2018-07-16T04:43:07.375Z,15.80
2018-07-16T04:48:36.646Z,16.00
2018-07-16T04:59:40.184Z,16.30
2018-07-16T05:05:13.144Z,16.40
2018-07-16T05:10:42.365Z,16.40
2018-07-16T05:16:11.578Z,16.30
2018-07-16T05:21:41.109Z,16.10
2018-07-16T05:27:10.369Z,16.00
2018-07-16T05:32:39.842Z,15.90
2018-07-16T05:38:08.857Z,15.80
2018-07-16T05:43:38.085Z,15.70
2018-07-16T05:49:07.485Z,15.60
2018-07-16T05:54:36.713Z,15.40
2018-07-16T06:00:06.035Z,15.40
2018-07-16T06:05:35.276Z,15.40
2018-07-16T06:11:04.521Z,15.40
2018-07-16T06:16:33.821Z,15.40
2018-07-16T06:22:03.112Z,15.50
2018-07-16T06:27:32.348Z,15.60
2018-07-16T06:33:01.607Z,15.70
2018-07-16T06:38:30.829Z,15.70
2018-07-16T06:44:13.097Z,15.90
2018-07-16T06:49:42.299Z,16.00
2018-07-16T06:55:11.574Z,16.20
2018-07-16T07:00:40.900Z,16.30
2018-07-16T07:06:10.078Z,16.40
2018-07-16T07:11:39.440Z,16.60
2018-07-16T07:17:08.687Z,16.60
2018-07-16T07:22:37.959Z,16.70
2018-07-16T07:28:07.188Z,16.70
2018-07-16T07:33:36.408Z,16.80
2018-07-16T07:39:06.975Z,17.10
2018-07-16T07:44:36.319Z,17.20
2018-07-16T07:50:05.567Z,17.20
2018-07-16T08:01:03.883Z,17.30
2018-07-16T08:06:33.102Z,17.30
2018-07-16T08:12:02.455Z,17.50
2018-07-16T08:17:31.715Z,17.80
2018-07-16T08:23:00.947Z,18.20
2018-07-16T08:28:30.291Z,18.40
2018-07-16T08:33:59.540Z,18.60
2018-07-16T08:44:57.777Z,19.30
2018-07-16T08:50:26.989Z,19.60
2018-07-16T08:55:56.260Z,19.60
2018-07-16T09:01:25.471Z,20.10
2018-07-16T09:12:23.666Z,20.80
2018-07-16T09:17:52.902Z,21.10
2018-07-16T09:23:22.269Z,21.40
2018-07-16T09:28:51.517Z,21.90
2018-07-16T09:34:20.872Z,21.60
2018-07-16T09:39:50.180Z,21.60
2018-07-16T09:45:19.479Z,21.90
2018-07-16T09:50:48.823Z,22.00
2018-07-16T09:56:18.100Z,22.10
2018-07-16T10:01:52.509Z,22.60
2018-07-16T10:07:21.886Z,22.70
2018-07-16T10:12:51.120Z,22.80
2018-07-16T10:18:20.416Z,23.20
2018-07-16T10:23:49.762Z,23.60
2018-07-16T10:29:19.022Z,24.10
2018-07-16T10:34:48.285Z,24.40
2018-07-16T10:40:17.605Z,24.60
2018-07-16T10:51:15.864Z,24.60
2018-07-16T10:56:45.082Z,24.60
2018-07-16T11:02:14.306Z,24.80
2018-07-16T11:07:43.538Z,25.00
2018-07-16T11:13:13.857Z,25.20
2018-07-16T11:18:43.134Z,25.40
2018-07-16T11:24:12.325Z,25.20
2018-07-16T11:29:41.571Z,25.00
2018-07-16T11:35:10.799Z,24.60
2018-07-16T11:40:40.017Z,24.10
2018-07-16T11:46:09.287Z,24.30
2018-07-16T11:51:38.484Z,24.60
2018-07-16T11:57:08.119Z,25.00
2018-07-16T12:02:37.320Z,25.40
2018-07-16T12:08:06.607Z,25.40
2018-07-16T12:13:35.796Z,25.50
2018-07-16T12:19:05.060Z,25.80
2018-07-16T12:24:34.354Z,25.90
2018-07-16T12:30:03.690Z,25.90
2018-07-16T12:35:32.913Z,25.70
2018-07-16T12:41:02.137Z,25.20
2018-07-16T12:46:31.325Z,25.10
2018-07-16T12:52:00.554Z,25.10
2018-07-16T12:57:29.781Z,25.10
2018-07-16T13:02:59.002Z,25.00
2018-07-16T13:08:28.167Z,24.80
2018-07-16T13:13:57.952Z,24.50
2018-07-16T13:19:27.295Z,24.40
2018-07-16T13:24:56.508Z,24.60
2018-07-16T13:30:25.781Z,24.80
2018-07-16T13:35:54.978Z,24.80
2018-07-16T13:46:53.347Z,24.60
2018-07-16T13:52:22.529Z,24.60
2018-07-16T13:57:52.154Z,24.60
2018-07-16T14:03:21.915Z,24.60
2018-07-16T14:08:51.295Z,24.70
2018-07-16T14:14:20.698Z,24.90
2018-07-16T14:19:50.010Z,25.10
2018-07-16T14:25:19.407Z,25.10
2018-07-16T14:30:48.772Z,24.90
2018-07-16T14:36:18.277Z,24.70
2018-07-16T14:41:47.608Z,24.50
2018-07-16T14:47:16.994Z,24.40
2018-07-16T14:52:46.372Z,24.20
2018-07-16T14:58:15.645Z,24.10
2018-07-16T15:03:44.884Z,23.90
2018-07-16T15:09:14.117Z,23.70
2018-07-16T15:14:43.407Z,23.50
2018-07-16T15:20:12.637Z,23.40
2018-07-16T15:25:42.889Z,23.20
2018-07-16T15:31:12.121Z,22.90
2018-07-16T15:36:41.361Z,22.30
2018-07-16T15:42:10.651Z,22.10
2018-07-16T15:47:39.873Z,22.00
2018-07-16T15:53:09.166Z,22.00
2018-07-16T15:58:38.420Z,22.10
2018-07-16T16:04:07.685Z,22.20
2018-07-16T16:09:38.985Z,22.30
2018-07-16T16:15:08.196Z,22.50
2018-07-16T16:20:37.411Z,22.60
2018-07-16T16:26:06.945Z,22.60
2018-07-16T16:31:36.748Z,22.60
2018-07-16T16:37:06.131Z,22.70
2018-07-16T16:42:35.417Z,22.90
2018-07-16T16:48:04.759Z,22.90
2018-07-16T16:53:34.016Z,23.00
2018-07-16T16:59:03.311Z,23.00
2018-07-16T17:04:32.583Z,23.10
2018-07-16T17:10:02.839Z,23.10
2018-07-16T17:15:32.212Z,23.20
2018-07-16T17:21:01.497Z,23.10
2018-07-16T17:26:32.864Z,23.00
2018-07-16T17:32:03.551Z,23.00
2018-07-16T17:37:32.966Z,22.90
2018-07-16T17:43:06.708Z,22.80
2018-07-16T17:48:36.015Z,22.70
2018-07-16T17:54:05.292Z,22.60
2018-07-16T17:59:35.916Z,22.50
2018-07-16T18:05:05.401Z,22.40
2018-07-16T18:10:39.077Z,22.20
2018-07-16T18:16:08.625Z,22.10
2018-07-16T18:21:37.917Z,21.90
2018-07-16T18:27:07.254Z,21.80
2018-07-16T18:32:36.464Z,21.70
2018-07-16T18:38:05.725Z,21.60
2018-07-16T18:43:34.987Z,21.50
2018-07-16T18:49:04.496Z,21.40
2018-07-16T18:54:33.887Z,21.30
2018-07-16T19:00:03.193Z,21.20
2018-07-16T19:05:32.441Z,21.20
2018-07-16T19:11:01.759Z,21.00
2018-07-16T19:16:33.718Z,20.90
2018-07-16T19:22:02.953Z,20.80
2018-07-16T19:27:32.213Z,20.70
2018-07-16T19:33:05.955Z,20.60
2018-07-16T19:38:37.617Z,20.40
2018-07-16T19:44:06.791Z,20.30
2018-07-16T19:49:36.115Z,20.20
2018-07-16T19:55:05.624Z,20.00
2018-07-16T20:00:35.070Z,19.90
2018-07-16T20:06:04.451Z,19.80
2018-07-16T20:11:33.903Z,19.80
2018-07-16T20:17:04.268Z,19.60
2018-07-16T20:22:33.588Z,19.50
2018-07-16T20:28:02.956Z,19.40
2018-07-16T20:33:32.319Z,19.20
2018-07-16T20:39:01.683Z,19.10
2018-07-16T20:44:32.035Z,19.00
2018-07-16T20:50:01.413Z,18.80
2018-07-16T20:55:31.258Z,18.70
2018-07-16T21:01:03.620Z,18.60
2018-07-16T21:06:33.051Z,18.90
2018-07-16T21:12:02.371Z,18.80
2018-07-16T21:17:31.838Z,18.70
2018-07-16T21:23:01.176Z,18.60
2018-07-16T21:28:30.385Z,18.50
2018-07-16T21:34:00.827Z,18.40
2018-07-16T21:39:30.194Z,18.30
2018-07-16T21:44:59.520Z,18.10
2018-07-16T21:50:28.719Z,18.00
2018-07-16T21:55:57.971Z,17.90
2018-07-16T22:01:27.220Z,17.90
2018-07-16T22:06:56.501Z,17.80
2018-07-16T22:12:25.692Z,17.70
2018-07-16T22:18:07.868Z,17.60
2018-07-16T22:23:37.285Z,17.50
2018-07-16T22:29:06.675Z,17.40
2018-07-16T22:34:35.945Z,17.40
2018-07-16T22:40:05.773Z,17.30
2018-07-16T22:45:35.072Z,17.20
2018-07-16T22:51:05.550Z,17.00
2018-07-16T22:56:34.836Z,17.00
2018-07-16T23:02:15.097Z,16.90
2018-07-16T23:07:44.361Z,16.90
2018-07-16T23:13:13.604Z,16.90
2018-07-16T23:18:42.838Z,16.80
2018-07-16T23:24:13.011Z,16.80
2018-07-16T23:29:42.503Z,16.70
2018-07-16T23:35:11.773Z,16.60
2018-07-16T23:40:41.074Z,16.60
2018-07-16T23:46:10.423Z,16.50
2018-07-16T23:51:39.745Z,16.50
2018-07-16T23:57:09.039Z,16.40
